sensor_id;sensor_type;location;lat;lon;timestamp;temperature;humidity
46309;DHT22;32037;50.820;6.494;2023-03-13T00:01:20;7.30;99.90
46309;DHT22;32037;50.820;6.494;2023-03-13T00:03:49;7.30;99.90
46309;DHT22;32037;50.820;6.494;2023-03-13T00:06:19;7.30;99.90
46309;DHT22;32037;50.820;6.494;2023-03-13T00:08:48;7.30;99.90
46309;DHT22;32037;50.820;6.494;2023-03-13T00:11:17;7.30;99.90
46309;DHT22;32037;50.820;6.494;2023-03-13T00:13:45;7.30;99.90
46309;DHT22;32037;50.820;6.494;2023-03-13T00:16:15;7.30;99.90
46309;DHT22;32037;50.820;6.494;2023-03-13T00:18:44;7.30;99.90
46309;DHT22;32037;50.820;6.494;2023-03-13T00:21:14;7.30;99.90
46309;DHT22;32037;50.820;6.494;2023-03-13T00:23:44;7.30;99.90
46309;DHT22;32037;50.820;6.494;2023-03-13T00:26:15;7.30;99.90
46309;DHT22;32037;50.820;6.494;2023-03-13T00:28:44;7.30;99.90
46309;DHT22;32037;50.820;6.494;2023-03-13T00:31:15;7.30;99.90
46309;DHT22;32037;50.820;6.494;2023-03-13T00:33:46;7.30;99.90
46309;DHT22;32037;50.820;6.494;2023-03-13T00:36:16;7.30;99.90
46309;DHT22;32037;50.820;6.494;2023-03-13T00:38:46;7.30;99.90
46309;DHT22;32037;50.820;6.494;2023-03-13T00:41:17;7.30;99.90
46309;DHT22;32037;50.820;6.494;2023-03-13T00:43:47;7.30;99.90
46309;DHT22;32037;50.820;6.494;2023-03-13T00:46:17;7.40;99.90
46309;DHT22;32037;50.820;6.494;2023-03-13T00:48:46;7.30;99.90
46309;DHT22;32037;50.820;6.494;2023-03-13T00:51:17;7.40;99.90
46309;DHT22;32037;50.820;6.494;2023-03-13T00:53:49;7.30;99.90
46309;DHT22;32037;50.820;6.494;2023-03-13T00:56:18;7.40;99.90
46309;DHT22;32037;50.820;6.494;2023-03-13T00:58:48;7.40;99.90
46309;DHT22;32037;50.820;6.494;2023-03-13T01:01:19;7.30;99.90
46309;DHT22;32037;50.820;6.494;2023-03-13T01:03:49;7.30;99.90
46309;DHT22;32037;50.820;6.494;2023-03-13T01:06:19;7.40;99.90
46309;DHT22;32037;50.820;6.494;2023-03-13T01:08:49;7.40;99.90
46309;DHT22;32037;50.820;6.494;2023-03-13T01:11:20;7.40;99.90
46309;DHT22;32037;50.820;6.494;2023-03-13T01:13:53;7.40;99.90
46309;DHT22;32037;50.820;6.494;2023-03-13T01:16:26;7.40;99.90
46309;DHT22;32037;50.820;6.494;2023-03-13T01:18:58;7.40;99.90
46309;DHT22;32037;50.820;6.494;2023-03-13T01:21:27;7.40;99.90
46309;DHT22;32037;50.820;6.494;2023-03-13T01:23:58;7.40;99.90
46309;DHT22;32037;50.820;6.494;2023-03-13T01:26:26;7.40;99.90
46309;DHT22;32037;50.820;6.494;2023-03-13T01:28:55;7.40;99.90
46309;DHT22;32037;50.820;6.494;2023-03-13T01:31:26;7.40;99.90
46309;DHT22;32037;50.820;6.494;2023-03-13T01:33:56;7.40;99.90
46309;DHT22;32037;50.820;6.494;2023-03-13T01:36:26;7.40;99.90
46309;DHT22;32037;50.820;6.494;2023-03-13T01:38:56;7.40;99.90
46309;DHT22;32037;50.820;6.494;2023-03-13T01:41:28;7.40;99.90
46309;DHT22;32037;50.820;6.494;2023-03-13T01:43:57;7.40;99.90
46309;DHT22;32037;50.820;6.494;2023-03-13T01:46:31;7.40;99.90
46309;DHT22;32037;50.820;6.494;2023-03-13T01:49:11;7.40;99.90
46309;DHT22;32037;50.820;6.494;2023-03-13T01:51:58;7.40;99.90
46309;DHT22;32037;50.820;6.494;2023-03-13T01:54:31;7.40;99.90
46309;DHT22;32037;50.820;6.494;2023-03-13T01:57:05;7.40;99.90
46309;DHT22;32037;50.820;6.494;2023-03-13T01:59:39;7.40;99.90
46309;DHT22;32037;50.820;6.494;2023-03-13T02:02:10;7.40;99.90
46309;DHT22;32037;50.820;6.494;2023-03-13T02:04:43;7.40;99.90
46309;DHT22;32037;50.820;6.494;2023-03-13T02:07:17;7.40;99.90
46309;DHT22;32037;50.820;6.494;2023-03-13T02:09:49;7.40;99.90
46309;DHT22;32037;50.820;6.494;2023-03-13T02:12:26;7.40;99.90
46309;DHT22;32037;50.820;6.494;2023-03-13T02:14:58;7.40;99.90
46309;DHT22;32037;50.820;6.494;2023-03-13T02:17:29;7.40;99.90
46309;DHT22;32037;50.820;6.494;2023-03-13T02:19:58;7.40;99.90
46309;DHT22;32037;50.820;6.494;2023-03-13T02:22:30;7.40;99.90
46309;DHT22;32037;50.820;6.494;2023-03-13T02:25:03;7.40;99.90
46309;DHT22;32037;50.820;6.494;2023-03-13T02:27:35;7.40;99.90
46309;DHT22;32037;50.820;6.494;2023-03-13T02:30:05;7.40;99.90
46309;DHT22;32037;50.820;6.494;2023-03-13T02:32:34;7.40;99.90
46309;DHT22;32037;50.820;6.494;2023-03-13T02:35:07;7.40;99.90
46309;DHT22;32037;50.820;6.494;2023-03-13T02:37:37;7.50;99.90
46309;DHT22;32037;50.820;6.494;2023-03-13T02:40:12;7.50;99.90
46309;DHT22;32037;50.820;6.494;2023-03-13T02:42:45;7.50;99.90
46309;DHT22;32037;50.820;6.494;2023-03-13T02:45:15;7.50;99.90
46309;DHT22;32037;50.820;6.494;2023-03-13T02:47:44;7.50;99.90
46309;DHT22;32037;50.820;6.494;2023-03-13T02:50:13;7.40;99.90
46309;DHT22;32037;50.820;6.494;2023-03-13T02:52:43;7.40;99.90
46309;DHT22;32037;50.820;6.494;2023-03-13T02:55:15;7.50;99.90
46309;DHT22;32037;50.820;6.494;2023-03-13T02:57:46;7.50;99.90
46309;DHT22;32037;50.820;6.494;2023-03-13T03:00:15;7.50;99.90
46309;DHT22;32037;50.820;6.494;2023-03-13T03:02:44;7.50;99.90
46309;DHT22;32037;50.820;6.494;2023-03-13T03:05:13;7.50;99.90
46309;DHT22;32037;50.820;6.494;2023-03-13T03:07:42;7.50;99.90
46309;DHT22;32037;50.820;6.494;2023-03-13T03:10:11;7.50;99.90
46309;DHT22;32037;50.820;6.494;2023-03-13T03:12:40;7.50;99.90
46309;DHT22;32037;50.820;6.494;2023-03-13T03:15:11;7.50;99.90
46309;DHT22;32037;50.820;6.494;2023-03-13T03:17:44;7.50;99.90
46309;DHT22;32037;50.820;6.494;2023-03-13T03:20:12;7.50;99.90
46309;DHT22;32037;50.820;6.494;2023-03-13T03:22:42;7.50;99.90
46309;DHT22;32037;50.820;6.494;2023-03-13T03:25:10;7.50;99.90
46309;DHT22;32037;50.820;6.494;2023-03-13T03:27:39;7.50;99.90
46309;DHT22;32037;50.820;6.494;2023-03-13T03:30:11;7.50;99.90
46309;DHT22;32037;50.820;6.494;2023-03-13T03:32:39;7.50;99.90
46309;DHT22;32037;50.820;6.494;2023-03-13T03:35:08;7.50;99.90
46309;DHT22;32037;50.820;6.494;2023-03-13T03:37:36;7.50;99.90
46309;DHT22;32037;50.820;6.494;2023-03-13T03:40:08;7.50;99.90
46309;DHT22;32037;50.820;6.494;2023-03-13T03:42:38;7.50;99.90
46309;DHT22;32037;50.820;6.494;2023-03-13T03:45:08;7.50;99.90
46309;DHT22;32037;50.820;6.494;2023-03-13T03:47:37;7.50;99.90
46309;DHT22;32037;50.820;6.494;2023-03-13T03:50:07;7.50;99.90
46309;DHT22;32037;50.820;6.494;2023-03-13T03:52:45;7.50;99.90
46309;DHT22;32037;50.820;6.494;2023-03-13T03:55:14;7.50;99.90
46309;DHT22;32037;50.820;6.494;2023-03-13T03:57:43;7.50;99.90
46309;DHT22;32037;50.820;6.494;2023-03-13T04:00:21;7.50;99.90
46309;DHT22;32037;50.820;6.494;2023-03-13T04:02:54;7.50;99.90
46309;DHT22;32037;50.820;6.494;2023-03-13T04:05:23;7.50;99.90
46309;DHT22;32037;50.820;6.494;2023-03-13T04:07:52;7.50;99.90
46309;DHT22;32037;50.820;6.494;2023-03-13T04:10:21;7.50;99.90
46309;DHT22;32037;50.820;6.494;2023-03-13T04:12:49;7.60;99.90
46309;DHT22;32037;50.820;6.494;2023-03-13T04:15:18;7.50;99.90
46309;DHT22;32037;50.820;6.494;2023-03-13T04:17:46;7.60;99.90
46309;DHT22;32037;50.820;6.494;2023-03-13T04:20:19;7.60;99.90
46309;DHT22;32037;50.820;6.494;2023-03-13T04:22:48;7.60;99.90
46309;DHT22;32037;50.820;6.494;2023-03-13T04:25:17;7.60;99.90
46309;DHT22;32037;50.820;6.494;2023-03-13T04:27:48;7.60;99.90
46309;DHT22;32037;50.820;6.494;2023-03-13T04:30:19;7.50;99.90
46309;DHT22;32037;50.820;6.494;2023-03-13T04:33:03;7.60;99.90
46309;DHT22;32037;50.820;6.494;2023-03-13T04:35:50;7.60;99.90
46309;DHT22;32037;50.820;6.494;2023-03-13T04:38:37;7.60;99.90
46309;DHT22;32037;50.820;6.494;2023-03-13T04:41:29;7.60;99.90
46309;DHT22;32037;50.820;6.494;2023-03-13T04:44:32;7.60;99.90
46309;DHT22;32037;50.820;6.494;2023-03-13T04:47:35;7.60;99.90
46309;DHT22;32037;50.820;6.494;2023-03-13T04:50:22;7.60;99.90
46309;DHT22;32037;50.820;6.494;2023-03-13T04:53:21;7.60;99.90
46309;DHT22;32037;50.820;6.494;2023-03-13T04:56:03;7.60;99.90
46309;DHT22;32037;50.820;6.494;2023-03-13T04:58:50;7.60;99.90
46309;DHT22;32037;50.820;6.494;2023-03-13T05:01:37;7.60;99.90
46309;DHT22;32037;50.820;6.494;2023-03-13T05:04:08;7.60;99.90
46309;DHT22;32037;50.820;6.494;2023-03-13T05:06:57;7.60;99.90
46309;DHT22;32037;50.820;6.494;2023-03-13T05:10:03;7.60;99.90
46309;DHT22;32037;50.820;6.494;2023-03-13T05:12:37;7.60;99.90
46309;DHT22;32037;50.820;6.494;2023-03-13T05:15:26;7.60;99.90
46309;DHT22;32037;50.820;6.494;2023-03-13T05:18:17;7.60;99.90
46309;DHT22;32037;50.820;6.494;2023-03-13T05:21:03;7.60;99.90
46309;DHT22;32037;50.820;6.494;2023-03-13T05:23:50;7.60;99.90
46309;DHT22;32037;50.820;6.494;2023-03-13T05:26:46;7.60;99.90
46309;DHT22;32037;50.820;6.494;2023-03-13T05:29:28;7.60;99.90
46309;DHT22;32037;50.820;6.494;2023-03-13T05:32:09;7.60;99.90
46309;DHT22;32037;50.820;6.494;2023-03-13T05:34:52;7.70;99.90
46309;DHT22;32037;50.820;6.494;2023-03-13T05:37:43;7.60;99.90
46309;DHT22;32037;50.820;6.494;2023-03-13T05:40:25;7.60;99.90
46309;DHT22;32037;50.820;6.494;2023-03-13T05:43:15;7.60;99.90
46309;DHT22;32037;50.820;6.494;2023-03-13T05:45:59;7.70;99.90
46309;DHT22;32037;50.820;6.494;2023-03-13T05:48:51;7.60;99.90
46309;DHT22;32037;50.820;6.494;2023-03-13T05:51:46;7.70;99.90
46309;DHT22;32037;50.820;6.494;2023-03-13T05:54:27;7.70;99.90
46309;DHT22;32037;50.820;6.494;2023-03-13T05:57:18;7.60;99.90
46309;DHT22;32037;50.820;6.494;2023-03-13T06:00:18;7.70;99.90
46309;DHT22;32037;50.820;6.494;2023-03-13T06:03:12;7.70;99.90
46309;DHT22;32037;50.820;6.494;2023-03-13T06:05:44;7.70;99.90
46309;DHT22;32037;50.820;6.494;2023-03-13T06:08:29;7.70;99.90
46309;DHT22;32037;50.820;6.494;2023-03-13T06:11:00;7.70;99.90
46309;DHT22;32037;50.820;6.494;2023-03-13T06:13:29;7.70;99.90
46309;DHT22;32037;50.820;6.494;2023-03-13T06:16:04;7.70;99.90
46309;DHT22;32037;50.820;6.494;2023-03-13T06:18:40;7.70;99.90
46309;DHT22;32037;50.820;6.494;2023-03-13T06:21:08;7.70;99.90
46309;DHT22;32037;50.820;6.494;2023-03-13T06:23:40;7.70;99.90
46309;DHT22;32037;50.820;6.494;2023-03-13T06:26:09;7.70;99.90
46309;DHT22;32037;50.820;6.494;2023-03-13T06:28:37;7.70;99.90
46309;DHT22;32037;50.820;6.494;2023-03-13T06:31:09;7.70;99.90
46309;DHT22;32037;50.820;6.494;2023-03-13T06:33:38;7.70;99.90
46309;DHT22;32037;50.820;6.494;2023-03-13T06:36:07;7.70;99.90
46309;DHT22;32037;50.820;6.494;2023-03-13T06:38:36;7.70;99.90
46309;DHT22;32037;50.820;6.494;2023-03-13T06:41:06;7.70;99.90
46309;DHT22;32037;50.820;6.494;2023-03-13T06:43:34;7.70;99.90
46309;DHT22;32037;50.820;6.494;2023-03-13T06:46:14;7.70;99.90
46309;DHT22;32037;50.820;6.494;2023-03-13T06:48:43;7.70;99.90
46309;DHT22;32037;50.820;6.494;2023-03-13T06:51:13;7.70;99.90
46309;DHT22;32037;50.820;6.494;2023-03-13T06:53:42;7.70;99.90
46309;DHT22;32037;50.820;6.494;2023-03-13T06:56:11;7.70;99.90
46309;DHT22;32037;50.820;6.494;2023-03-13T06:58:40;7.70;99.90
46309;DHT22;32037;50.820;6.494;2023-03-13T07:01:11;7.70;99.90
46309;DHT22;32037;50.820;6.494;2023-03-13T07:03:40;7.70;99.90
46309;DHT22;32037;50.820;6.494;2023-03-13T07:06:10;7.70;99.90
46309;DHT22;32037;50.820;6.494;2023-03-13T07:08:40;7.70;99.90
46309;DHT22;32037;50.820;6.494;2023-03-13T07:11:11;7.80;99.90
46309;DHT22;32037;50.820;6.494;2023-03-13T07:13:40;7.70;99.90
46309;DHT22;32037;50.820;6.494;2023-03-13T07:16:11;7.70;99.90
46309;DHT22;32037;50.820;6.494;2023-03-13T07:18:40;7.80;99.90
46309;DHT22;32037;50.820;6.494;2023-03-13T07:21:11;7.80;99.90
46309;DHT22;32037;50.820;6.494;2023-03-13T07:23:40;7.80;99.90
46309;DHT22;32037;50.820;6.494;2023-03-13T07:26:11;7.80;99.90
46309;DHT22;32037;50.820;6.494;2023-03-13T07:28:41;7.80;99.90
46309;DHT22;32037;50.820;6.494;2023-03-13T07:31:12;7.80;99.90
46309;DHT22;32037;50.820;6.494;2023-03-13T07:33:41;7.80;99.90
46309;DHT22;32037;50.820;6.494;2023-03-13T07:36:12;7.80;99.90
46309;DHT22;32037;50.820;6.494;2023-03-13T07:38:41;7.80;99.90
46309;DHT22;32037;50.820;6.494;2023-03-13T07:41:11;7.80;99.90
46309;DHT22;32037;50.820;6.494;2023-03-13T07:43:40;7.80;99.90
46309;DHT22;32037;50.820;6.494;2023-03-13T07:46:13;7.80;99.90
46309;DHT22;32037;50.820;6.494;2023-03-13T07:48:42;7.80;99.90
46309;DHT22;32037;50.820;6.494;2023-03-13T07:51:12;7.80;99.90
46309;DHT22;32037;50.820;6.494;2023-03-13T07:53:41;7.80;99.90
46309;DHT22;32037;50.820;6.494;2023-03-13T07:56:11;7.80;99.90
46309;DHT22;32037;50.820;6.494;2023-03-13T07:58:41;7.80;99.90
46309;DHT22;32037;50.820;6.494;2023-03-13T08:01:13;7.80;99.90
46309;DHT22;32037;50.820;6.494;2023-03-13T08:03:42;7.80;99.90
46309;DHT22;32037;50.820;6.494;2023-03-13T08:06:13;7.80;99.90
46309;DHT22;32037;50.820;6.494;2023-03-13T08:08:43;7.80;99.90
46309;DHT22;32037;50.820;6.494;2023-03-13T08:11:13;7.80;99.90
46309;DHT22;32037;50.820;6.494;2023-03-13T08:13:42;7.90;99.90
46309;DHT22;32037;50.820;6.494;2023-03-13T08:16:14;7.90;99.90
46309;DHT22;32037;50.820;6.494;2023-03-13T08:18:44;7.90;99.90
46309;DHT22;32037;50.820;6.494;2023-03-13T08:21:15;7.90;99.90
46309;DHT22;32037;50.820;6.494;2023-03-13T08:23:44;7.90;99.90
46309;DHT22;32037;50.820;6.494;2023-03-13T08:26:14;7.90;99.90
46309;DHT22;32037;50.820;6.494;2023-03-13T08:28:44;7.90;99.90
46309;DHT22;32037;50.820;6.494;2023-03-13T08:31:17;7.90;99.90
46309;DHT22;32037;50.820;6.494;2023-03-13T08:33:46;7.90;99.90
46309;DHT22;32037;50.820;6.494;2023-03-13T08:36:17;7.90;99.90
46309;DHT22;32037;50.820;6.494;2023-03-13T08:38:47;7.90;99.90
46309;DHT22;32037;50.820;6.494;2023-03-13T08:41:17;7.90;99.90
46309;DHT22;32037;50.820;6.494;2023-03-13T08:43:46;7.90;99.90
46309;DHT22;32037;50.820;6.494;2023-03-13T08:46:16;7.90;99.90
46309;DHT22;32037;50.820;6.494;2023-03-13T08:48:48;7.90;99.90
46309;DHT22;32037;50.820;6.494;2023-03-13T08:51:18;7.90;99.90
46309;DHT22;32037;50.820;6.494;2023-03-13T08:53:47;7.90;99.90
46309;DHT22;32037;50.820;6.494;2023-03-13T08:56:17;7.90;99.90
46309;DHT22;32037;50.820;6.494;2023-03-13T08:58:48;7.90;99.90
46309;DHT22;32037;50.820;6.494;2023-03-13T09:01:19;7.90;99.90
46309;DHT22;32037;50.820;6.494;2023-03-13T09:03:48;7.90;99.90
46309;DHT22;32037;50.820;6.494;2023-03-13T09:06:17;7.90;99.90
46309;DHT22;32037;50.820;6.494;2023-03-13T09:08:47;7.90;99.90
46309;DHT22;32037;50.820;6.494;2023-03-13T09:11:17;7.90;99.90
46309;DHT22;32037;50.820;6.494;2023-03-13T09:13:47;8.00;99.90
46309;DHT22;32037;50.820;6.494;2023-03-13T09:16:19;8.00;99.90
46309;DHT22;32037;50.820;6.494;2023-03-13T09:18:48;8.00;99.90
46309;DHT22;32037;50.820;6.494;2023-03-13T09:21:18;8.00;99.90
46309;DHT22;32037;50.820;6.494;2023-03-13T09:23:47;8.00;99.90
46309;DHT22;32037;50.820;6.494;2023-03-13T09:26:17;8.00;99.90
46309;DHT22;32037;50.820;6.494;2023-03-13T09:28:49;7.90;99.90
46309;DHT22;32037;50.820;6.494;2023-03-13T09:31:22;8.00;99.90
46309;DHT22;32037;50.820;6.494;2023-03-13T09:33:51;8.00;99.90
46309;DHT22;32037;50.820;6.494;2023-03-13T09:36:21;8.00;99.90
46309;DHT22;32037;50.820;6.494;2023-03-13T09:38:50;8.00;99.90
46309;DHT22;32037;50.820;6.494;2023-03-13T09:41:23;8.00;99.90
46309;DHT22;32037;50.820;6.494;2023-03-13T09:43:57;8.00;99.90
46309;DHT22;32037;50.820;6.494;2023-03-13T09:46:32;8.00;99.90
46309;DHT22;32037;50.820;6.494;2023-03-13T09:49:13;8.00;99.90
46309;DHT22;32037;50.820;6.494;2023-03-13T09:51:48;8.00;99.90
46309;DHT22;32037;50.820;6.494;2023-03-13T09:54:23;8.00;99.90
46309;DHT22;32037;50.820;6.494;2023-03-13T09:56:56;8.00;99.90
46309;DHT22;32037;50.820;6.494;2023-03-13T09:59:34;8.10;99.90
46309;DHT22;32037;50.820;6.494;2023-03-13T10:02:18;8.00;99.90
46309;DHT22;32037;50.820;6.494;2023-03-13T10:04:52;8.10;99.90
46309;DHT22;32037;50.820;6.494;2023-03-13T10:07:22;8.10;99.90
46309;DHT22;32037;50.820;6.494;2023-03-13T10:09:50;8.10;99.90
46309;DHT22;32037;50.820;6.494;2023-03-13T10:12:22;8.10;99.90
46309;DHT22;32037;50.820;6.494;2023-03-13T10:14:59;8.20;99.90
46309;DHT22;32037;50.820;6.494;2023-03-13T10:17:34;8.30;99.90
46309;DHT22;32037;50.820;6.494;2023-03-13T10:20:16;8.40;99.90
46309;DHT22;32037;50.820;6.494;2023-03-13T10:22:47;8.60;99.90
46309;DHT22;32037;50.820;6.494;2023-03-13T10:25:26;8.70;99.90
46309;DHT22;32037;50.820;6.494;2023-03-13T10:27:55;8.80;99.90
46309;DHT22;32037;50.820;6.494;2023-03-13T10:30:26;8.90;99.90
46309;DHT22;32037;50.820;6.494;2023-03-13T10:33:18;8.90;99.90
46309;DHT22;32037;50.820;6.494;2023-03-13T10:36:03;9.00;99.90
46309;DHT22;32037;50.820;6.494;2023-03-13T10:38:47;9.00;99.90
46309;DHT22;32037;50.820;6.494;2023-03-13T10:41:25;9.10;99.90
46309;DHT22;32037;50.820;6.494;2023-03-13T10:43:58;9.20;99.90
46309;DHT22;32037;50.820;6.494;2023-03-13T10:46:29;9.30;99.90
46309;DHT22;32037;50.820;6.494;2023-03-13T10:49:02;9.30;99.90
46309;DHT22;32037;50.820;6.494;2023-03-13T10:51:36;9.30;99.90
46309;DHT22;32037;50.820;6.494;2023-03-13T10:54:14;9.30;99.90
46309;DHT22;32037;50.820;6.494;2023-03-13T10:56:43;9.40;99.90
46309;DHT22;32037;50.820;6.494;2023-03-13T10:59:21;9.40;99.90
46309;DHT22;32037;50.820;6.494;2023-03-13T11:01:52;9.50;99.90
46309;DHT22;32037;50.820;6.494;2023-03-13T11:04:31;9.50;99.90
46309;DHT22;32037;50.820;6.494;2023-03-13T11:07:04;9.60;99.90
46309;DHT22;32037;50.820;6.494;2023-03-13T11:09:33;9.60;99.90
46309;DHT22;32037;50.820;6.494;2023-03-13T11:12:04;9.60;99.90
46309;DHT22;32037;50.820;6.494;2023-03-13T11:14:34;9.60;99.90
46309;DHT22;32037;50.820;6.494;2023-03-13T11:17:10;9.60;99.90
46309;DHT22;32037;50.820;6.494;2023-03-13T11:19:52;9.70;99.90
46309;DHT22;32037;50.820;6.494;2023-03-13T11:22:29;9.70;99.90
46309;DHT22;32037;50.820;6.494;2023-03-13T11:25:07;9.70;99.90
46309;DHT22;32037;50.820;6.494;2023-03-13T11:27:45;9.80;99.90
46309;DHT22;32037;50.820;6.494;2023-03-13T11:30:21;9.80;99.90
46309;DHT22;32037;50.820;6.494;2023-03-13T11:32:54;9.80;99.90
46309;DHT22;32037;50.820;6.494;2023-03-13T11:35:38;9.80;99.90
46309;DHT22;32037;50.820;6.494;2023-03-13T11:38:12;9.80;99.90
46309;DHT22;32037;50.820;6.494;2023-03-13T11:40:53;9.80;99.90
46309;DHT22;32037;50.820;6.494;2023-03-13T11:43:39;9.90;99.90
46309;DHT22;32037;50.820;6.494;2023-03-13T11:46:20;9.90;99.90
46309;DHT22;32037;50.820;6.494;2023-03-13T11:49:18;9.90;99.90
46309;DHT22;32037;50.820;6.494;2023-03-13T11:51:57;9.90;99.90
46309;DHT22;32037;50.820;6.494;2023-03-13T11:54:46;10.00;99.90
46309;DHT22;32037;50.820;6.494;2023-03-13T11:57:24;10.00;99.90
46309;DHT22;32037;50.820;6.494;2023-03-13T12:00:14;10.00;99.90
46309;DHT22;32037;50.820;6.494;2023-03-13T12:02:49;10.00;99.90
46309;DHT22;32037;50.820;6.494;2023-03-13T12:05:20;10.00;99.90
46309;DHT22;32037;50.820;6.494;2023-03-13T12:07:56;10.00;99.90
46309;DHT22;32037;50.820;6.494;2023-03-13T12:10:35;10.00;99.90
46309;DHT22;32037;50.820;6.494;2023-03-13T12:13:11;10.00;99.90
46309;DHT22;32037;50.820;6.494;2023-03-13T12:15:44;10.00;99.90
46309;DHT22;32037;50.820;6.494;2023-03-13T12:18:17;10.10;99.90
46309;DHT22;32037;50.820;6.494;2023-03-13T12:20:53;10.10;99.90
46309;DHT22;32037;50.820;6.494;2023-03-13T12:23:33;10.10;99.90
46309;DHT22;32037;50.820;6.494;2023-03-13T12:26:05;10.10;99.90
46309;DHT22;32037;50.820;6.494;2023-03-13T12:28:38;10.10;99.90
46309;DHT22;32037;50.820;6.494;2023-03-13T12:31:16;10.10;99.90
46309;DHT22;32037;50.820;6.494;2023-03-13T12:33:52;10.10;99.90
46309;DHT22;32037;50.820;6.494;2023-03-13T12:36:25;10.10;99.90
46309;DHT22;32037;50.820;6.494;2023-03-13T12:39:05;10.10;99.90
46309;DHT22;32037;50.820;6.494;2023-03-13T12:41:42;10.20;99.90
46309;DHT22;32037;50.820;6.494;2023-03-13T12:44:17;10.20;99.90
46309;DHT22;32037;50.820;6.494;2023-03-13T12:46:47;10.20;99.90
46309;DHT22;32037;50.820;6.494;2023-03-13T12:49:44;10.30;99.90
46309;DHT22;32037;50.820;6.494;2023-03-13T12:52:36;10.30;99.90
46309;DHT22;32037;50.820;6.494;2023-03-13T12:55:28;10.30;99.90
46309;DHT22;32037;50.820;6.494;2023-03-13T12:58:12;10.30;99.90
46309;DHT22;32037;50.820;6.494;2023-03-13T13:00:44;10.30;99.90
46309;DHT22;32037;50.820;6.494;2023-03-13T13:03:26;10.30;99.90
46309;DHT22;32037;50.820;6.494;2023-03-13T13:06:07;10.30;99.90
46309;DHT22;32037;50.820;6.494;2023-03-13T13:08:39;10.30;99.90
46309;DHT22;32037;50.820;6.494;2023-03-13T13:11:37;10.40;99.90
46309;DHT22;32037;50.820;6.494;2023-03-13T13:20:45;10.40;99.90
46309;DHT22;32037;50.820;6.494;2023-03-13T13:23:36;10.40;99.90
46309;DHT22;32037;50.820;6.494;2023-03-13T13:32:38;10.50;99.90
46309;DHT22;32037;50.820;6.494;2023-03-13T13:35:34;10.50;99.90
46309;DHT22;32037;50.820;6.494;2023-03-13T13:38:29;10.50;99.90
46309;DHT22;32037;50.820;6.494;2023-03-13T13:43:49;10.50;99.90
46309;DHT22;32037;50.820;6.494;2023-03-13T13:46:22;10.50;99.90
46309;DHT22;32037;50.820;6.494;2023-03-13T13:49:13;10.50;99.90
46309;DHT22;32037;50.820;6.494;2023-03-13T13:55:33;10.50;99.90
46309;DHT22;32037;50.820;6.494;2023-03-13T13:58:11;10.50;99.90
46309;DHT22;32037;50.820;6.494;2023-03-13T14:00:43;10.50;99.90
46309;DHT22;32037;50.820;6.494;2023-03-13T14:03:18;10.50;99.90
46309;DHT22;32037;50.820;6.494;2023-03-13T14:05:51;10.50;99.90
46309;DHT22;32037;50.820;6.494;2023-03-13T14:08:24;10.50;99.90
46309;DHT22;32037;50.820;6.494;2023-03-13T14:11:06;10.50;99.90
46309;DHT22;32037;50.820;6.494;2023-03-13T14:13:38;10.60;99.90
46309;DHT22;32037;50.820;6.494;2023-03-13T14:16:21;10.60;99.90
46309;DHT22;32037;50.820;6.494;2023-03-13T14:18:52;10.60;99.90
46309;DHT22;32037;50.820;6.494;2023-03-13T14:21:23;10.60;99.90
46309;DHT22;32037;50.820;6.494;2023-03-13T14:23:53;10.60;99.90
46309;DHT22;32037;50.820;6.494;2023-03-13T14:26:23;10.60;99.90
46309;DHT22;32037;50.820;6.494;2023-03-13T14:28:54;10.60;99.90
46309;DHT22;32037;50.820;6.494;2023-03-13T14:31:26;10.70;99.90
46309;DHT22;32037;50.820;6.494;2023-03-13T14:33:57;10.70;99.90
46309;DHT22;32037;50.820;6.494;2023-03-13T14:36:27;10.70;99.90
46309;DHT22;32037;50.820;6.494;2023-03-13T14:38:57;10.60;99.90
46309;DHT22;32037;50.820;6.494;2023-03-13T14:41:35;10.70;99.90
46309;DHT22;32037;50.820;6.494;2023-03-13T14:44:06;10.70;99.90
46309;DHT22;32037;50.820;6.494;2023-03-13T14:46:42;10.70;99.90
46309;DHT22;32037;50.820;6.494;2023-03-13T14:49:18;10.70;99.90
46309;DHT22;32037;50.820;6.494;2023-03-13T14:51:58;10.70;99.90
46309;DHT22;32037;50.820;6.494;2023-03-13T14:54:30;10.70;99.90
46309;DHT22;32037;50.820;6.494;2023-03-13T14:57:14;10.70;99.90
46309;DHT22;32037;50.820;6.494;2023-03-13T14:59:44;10.70;99.90
46309;DHT22;32037;50.820;6.494;2023-03-13T15:02:18;10.70;99.90
46309;DHT22;32037;50.820;6.494;2023-03-13T15:04:53;10.70;99.90
46309;DHT22;32037;50.820;6.494;2023-03-13T15:07:24;10.70;99.90
46309;DHT22;32037;50.820;6.494;2023-03-13T15:09:53;10.70;99.90
46309;DHT22;32037;50.820;6.494;2023-03-13T15:12:23;10.70;99.90
46309;DHT22;32037;50.820;6.494;2023-03-13T15:14:52;10.70;99.90
46309;DHT22;32037;50.820;6.494;2023-03-13T15:17:22;10.70;99.90
46309;DHT22;32037;50.820;6.494;2023-03-13T15:19:52;10.70;99.90
46309;DHT22;32037;50.820;6.494;2023-03-13T15:22:27;10.70;99.90
46309;DHT22;32037;50.820;6.494;2023-03-13T15:24:57;10.70;99.90
46309;DHT22;32037;50.820;6.494;2023-03-13T15:27:34;10.70;99.90
46309;DHT22;32037;50.820;6.494;2023-03-13T15:30:04;10.70;99.90
46309;DHT22;32037;50.820;6.494;2023-03-13T15:32:37;10.70;99.90
46309;DHT22;32037;50.820;6.494;2023-03-13T15:35:23;10.70;99.90
46309;DHT22;32037;50.820;6.494;2023-03-13T15:37:55;10.80;99.90
46309;DHT22;32037;50.820;6.494;2023-03-13T15:40:24;10.80;99.90
46309;DHT22;32037;50.820;6.494;2023-03-13T15:42:54;10.70;99.90
46309;DHT22;32037;50.820;6.494;2023-03-13T15:45:22;10.80;99.90
46309;DHT22;32037;50.820;6.494;2023-03-13T15:47:51;10.80;99.90
46309;DHT22;32037;50.820;6.494;2023-03-13T15:50:21;10.70;99.90
46309;DHT22;32037;50.820;6.494;2023-03-13T15:52:57;10.70;99.90
46309;DHT22;32037;50.820;6.494;2023-03-13T15:55:28;10.70;99.90
46309;DHT22;32037;50.820;6.494;2023-03-13T15:57:57;10.80;99.90
46309;DHT22;32037;50.820;6.494;2023-03-13T16:00:26;10.80;99.90
46309;DHT22;32037;50.820;6.494;2023-03-13T16:02:55;10.80;99.90
46309;DHT22;32037;50.820;6.494;2023-03-13T16:05:24;10.80;99.90
46309;DHT22;32037;50.820;6.494;2023-03-13T16:07:52;10.80;99.90
46309;DHT22;32037;50.820;6.494;2023-03-13T16:10:24;10.80;99.90
46309;DHT22;32037;50.820;6.494;2023-03-13T16:12:53;10.80;99.90
46309;DHT22;32037;50.820;6.494;2023-03-13T16:15:22;10.80;99.90
46309;DHT22;32037;50.820;6.494;2023-03-13T16:17:50;10.80;99.90
46309;DHT22;32037;50.820;6.494;2023-03-13T16:20:20;10.80;99.90
46309;DHT22;32037;50.820;6.494;2023-03-13T16:22:49;10.80;99.90
46309;DHT22;32037;50.820;6.494;2023-03-13T16:25:22;10.80;99.90
46309;DHT22;32037;50.820;6.494;2023-03-13T16:27:51;10.80;99.90
46309;DHT22;32037;50.820;6.494;2023-03-13T16:30:23;10.80;99.90
46309;DHT22;32037;50.820;6.494;2023-03-13T16:32:52;10.80;99.90
46309;DHT22;32037;50.820;6.494;2023-03-13T16:35:21;10.70;99.90
46309;DHT22;32037;50.820;6.494;2023-03-13T16:37:50;10.80;99.90
46309;DHT22;32037;50.820;6.494;2023-03-13T16:40:20;10.80;99.90
46309;DHT22;32037;50.820;6.494;2023-03-13T16:42:51;10.70;99.90
46309;DHT22;32037;50.820;6.494;2023-03-13T16:45:20;10.70;99.90